sensor_id;sensor_type;location;lat;lon;timestamp;P1;durP1;ratioP1;P2;durP2;ratioP2
16189;SDS011;41754;51.498;7.540;2022-11-20T00:02:12;31.97;;;20.27;;
16189;SDS011;41754;51.498;7.540;2022-11-20T00:04:41;31.87;;;19.87;;
16189;SDS011;41754;51.498;7.540;2022-11-20T00:07:09;33.17;;;20.17;;
16189;SDS011;41754;51.498;7.540;2022-11-20T00:09:37;30.23;;;20.43;;
16189;SDS011;41754;51.498;7.540;2022-11-20T00:12:05;31.20;;;20.67;;
16189;SDS011;41754;51.498;7.540;2022-11-20T00:14:33;34.60;;;21.83;;
16189;SDS011;41754;51.498;7.540;2022-11-20T00:17:00;32.83;;;21.10;;
16189;SDS011;41754;51.498;7.540;2022-11-20T00:19:30;35.03;;;21.10;;
16189;SDS011;41754;51.498;7.540;2022-11-20T00:21:58;37.97;;;21.67;;
16189;SDS011;41754;51.498;7.540;2022-11-20T00:24:25;35.07;;;21.30;;
16189;SDS011;41754;51.498;7.540;2022-11-20T00:26:53;32.73;;;20.47;;
16189;SDS011;41754;51.498;7.540;2022-11-20T00:29:21;33.23;;;19.20;;
16189;SDS011;41754;51.498;7.540;2022-11-20T00:31:49;33.93;;;21.07;;
16189;SDS011;41754;51.498;7.540;2022-11-20T00:34:17;37.70;;;22.77;;
16189;SDS011;41754;51.498;7.540;2022-11-20T00:36:46;34.27;;;21.30;;
16189;SDS011;41754;51.498;7.540;2022-11-20T00:39:14;33.43;;;21.70;;
16189;SDS011;41754;51.498;7.540;2022-11-20T00:41:42;34.90;;;22.57;;
16189;SDS011;41754;51.498;7.540;2022-11-20T00:44:10;34.80;;;22.17;;
16189;SDS011;41754;51.498;7.540;2022-11-20T00:46:37;37.67;;;21.80;;
16189;SDS011;41754;51.498;7.540;2022-11-20T00:49:05;35.23;;;21.93;;
16189;SDS011;41754;51.498;7.540;2022-11-20T00:51:33;36.53;;;23.47;;
16189;SDS011;41754;51.498;7.540;2022-11-20T00:54:03;33.90;;;20.83;;
16189;SDS011;41754;51.498;7.540;2022-11-20T00:56:31;38.83;;;24.27;;
16189;SDS011;41754;51.498;7.540;2022-11-20T00:58:58;33.10;;;21.63;;
16189;SDS011;41754;51.498;7.540;2022-11-20T01:01:27;39.07;;;24.47;;
16189;SDS011;41754;51.498;7.540;2022-11-20T01:03:57;38.80;;;23.53;;
16189;SDS011;41754;51.498;7.540;2022-11-20T01:06:26;34.10;;;21.90;;
16189;SDS011;41754;51.498;7.540;2022-11-20T01:08:55;34.83;;;21.27;;
16189;SDS011;41754;51.498;7.540;2022-11-20T01:11:26;31.70;;;20.33;;
16189;SDS011;41754;51.498;7.540;2022-11-20T01:13:56;33.17;;;19.53;;
16189;SDS011;41754;51.498;7.540;2022-11-20T01:16:25;32.40;;;20.00;;
16189;SDS011;41754;51.498;7.540;2022-11-20T01:18:55;33.47;;;19.93;;
16189;SDS011;41754;51.498;7.540;2022-11-20T01:21:25;32.03;;;19.53;;
16189;SDS011;41754;51.498;7.540;2022-11-20T01:23:54;32.80;;;19.60;;
16189;SDS011;41754;51.498;7.540;2022-11-20T01:26:23;30.07;;;19.37;;
16189;SDS011;41754;51.498;7.540;2022-11-20T01:28:54;27.87;;;18.10;;
16189;SDS011;41754;51.498;7.540;2022-11-20T01:31:23;30.03;;;18.93;;
16189;SDS011;41754;51.498;7.540;2022-11-20T01:33:52;28.43;;;18.30;;
16189;SDS011;41754;51.498;7.540;2022-11-20T01:36:21;29.47;;;19.83;;
16189;SDS011;41754;51.498;7.540;2022-11-20T01:38:51;29.57;;;18.77;;
16189;SDS011;41754;51.498;7.540;2022-11-20T01:41:19;25.90;;;18.17;;
16189;SDS011;41754;51.498;7.540;2022-11-20T01:44:07;32.37;;;19.27;;
16189;SDS011;41754;51.498;7.540;2022-11-20T01:46:36;29.30;;;19.67;;
16189;SDS011;41754;51.498;7.540;2022-11-20T01:49:05;31.13;;;21.83;;
16189;SDS011;41754;51.498;7.540;2022-11-20T01:51:38;33.83;;;21.23;;
16189;SDS011;41754;51.498;7.540;2022-11-20T01:54:09;29.97;;;19.97;;
16189;SDS011;41754;51.498;7.540;2022-11-20T01:56:39;32.37;;;20.57;;
16189;SDS011;41754;51.498;7.540;2022-11-20T01:59:11;27.73;;;18.60;;
16189;SDS011;41754;51.498;7.540;2022-11-20T02:01:42;29.73;;;18.57;;
16189;SDS011;41754;51.498;7.540;2022-11-20T02:04:10;25.00;;;17.37;;
16189;SDS011;41754;51.498;7.540;2022-11-20T02:06:39;26.77;;;16.73;;
16189;SDS011;41754;51.498;7.540;2022-11-20T02:09:09;23.07;;;17.00;;
16189;SDS011;41754;51.498;7.540;2022-11-20T02:11:37;23.50;;;17.27;;
16189;SDS011;41754;51.498;7.540;2022-11-20T02:14:05;25.47;;;16.47;;
16189;SDS011;41754;51.498;7.540;2022-11-20T02:16:35;23.77;;;16.47;;
16189;SDS011;41754;51.498;7.540;2022-11-20T02:19:06;24.33;;;15.87;;
16189;SDS011;41754;51.498;7.540;2022-11-20T02:21:39;23.10;;;16.77;;
16189;SDS011;41754;51.498;7.540;2022-11-20T02:24:11;24.73;;;16.50;;
16189;SDS011;41754;51.498;7.540;2022-11-20T02:26:42;22.00;;;15.77;;
16189;SDS011;41754;51.498;7.540;2022-11-20T02:29:15;23.70;;;16.30;;
16189;SDS011;41754;51.498;7.540;2022-11-20T02:31:44;24.97;;;16.57;;
16189;SDS011;41754;51.498;7.540;2022-11-20T02:34:12;24.83;;;16.33;;
16189;SDS011;41754;51.498;7.540;2022-11-20T02:36:40;21.77;;;15.23;;
16189;SDS011;41754;51.498;7.540;2022-11-20T02:39:10;22.77;;;15.67;;
16189;SDS011;41754;51.498;7.540;2022-11-20T02:41:39;25.10;;;16.40;;
16189;SDS011;41754;51.498;7.540;2022-11-20T02:44:07;22.37;;;16.37;;
16189;SDS011;41754;51.498;7.540;2022-11-20T02:46:35;24.27;;;15.90;;
16189;SDS011;41754;51.498;7.540;2022-11-20T02:49:03;22.30;;;15.90;;
16189;SDS011;41754;51.498;7.540;2022-11-20T02:51:31;25.50;;;15.87;;
16189;SDS011;41754;51.498;7.540;2022-11-20T02:53:59;23.57;;;15.67;;
16189;SDS011;41754;51.498;7.540;2022-11-20T02:56:29;22.60;;;16.33;;
16189;SDS011;41754;51.498;7.540;2022-11-20T02:58:57;23.17;;;15.90;;
16189;SDS011;41754;51.498;7.540;2022-11-20T03:01:24;24.87;;;16.47;;
16189;SDS011;41754;51.498;7.540;2022-11-20T03:03:52;22.30;;;16.07;;
16189;SDS011;41754;51.498;7.540;2022-11-20T03:06:21;21.97;;;15.77;;
16189;SDS011;41754;51.498;7.540;2022-11-20T03:08:49;24.33;;;16.43;;
16189;SDS011;41754;51.498;7.540;2022-11-20T03:11:17;27.03;;;16.63;;
16189;SDS011;41754;51.498;7.540;2022-11-20T03:13:46;24.60;;;16.63;;
16189;SDS011;41754;51.498;7.540;2022-11-20T03:16:16;25.10;;;16.37;;
16189;SDS011;41754;51.498;7.540;2022-11-20T03:18:44;22.77;;;16.13;;
16189;SDS011;41754;51.498;7.540;2022-11-20T03:21:13;22.63;;;15.30;;
16189;SDS011;41754;51.498;7.540;2022-11-20T03:23:41;21.47;;;15.67;;
16189;SDS011;41754;51.498;7.540;2022-11-20T03:26:10;22.47;;;16.60;;
16189;SDS011;41754;51.498;7.540;2022-11-20T03:28:39;20.63;;;15.53;;
16189;SDS011;41754;51.498;7.540;2022-11-20T03:31:09;18.70;;;13.80;;
16189;SDS011;41754;51.498;7.540;2022-11-20T03:33:38;20.90;;;14.57;;
16189;SDS011;41754;51.498;7.540;2022-11-20T03:36:07;19.77;;;14.47;;
16189;SDS011;41754;51.498;7.540;2022-11-20T03:38:37;20.23;;;14.40;;
16189;SDS011;41754;51.498;7.540;2022-11-20T03:41:06;20.37;;;14.83;;
16189;SDS011;41754;51.498;7.540;2022-11-20T03:43:35;21.50;;;14.97;;
16189;SDS011;41754;51.498;7.540;2022-11-20T03:46:03;18.47;;;14.27;;
16189;SDS011;41754;51.498;7.540;2022-11-20T03:48:32;19.13;;;13.63;;
16189;SDS011;41754;51.498;7.540;2022-11-20T03:51:08;18.83;;;13.70;;
16189;SDS011;41754;51.498;7.540;2022-11-20T03:53:36;19.47;;;13.50;;
16189;SDS011;41754;51.498;7.540;2022-11-20T03:56:05;18.90;;;14.00;;
16189;SDS011;41754;51.498;7.540;2022-11-20T03:58:33;20.23;;;14.77;;
16189;SDS011;41754;51.498;7.540;2022-11-20T04:01:05;17.93;;;12.80;;
16189;SDS011;41754;51.498;7.540;2022-11-20T04:03:35;18.43;;;13.17;;
16189;SDS011;41754;51.498;7.540;2022-11-20T04:06:04;17.00;;;13.03;;
16189;SDS011;41754;51.498;7.540;2022-11-20T04:08:34;16.47;;;12.03;;
16189;SDS011;41754;51.498;7.540;2022-11-20T04:11:11;18.87;;;12.83;;
16189;SDS011;41754;51.498;7.540;2022-11-20T04:13:42;19.47;;;13.70;;
16189;SDS011;41754;51.498;7.540;2022-11-20T04:16:13;19.40;;;14.73;;
16189;SDS011;41754;51.498;7.540;2022-11-20T04:18:43;22.13;;;15.37;;
16189;SDS011;41754;51.498;7.540;2022-11-20T04:21:11;17.73;;;13.40;;
16189;SDS011;41754;51.498;7.540;2022-11-20T04:23:39;18.43;;;13.27;;
16189;SDS011;41754;51.498;7.540;2022-11-20T04:26:07;21.27;;;13.57;;
16189;SDS011;41754;51.498;7.540;2022-11-20T04:28:37;19.53;;;13.97;;
16189;SDS011;41754;51.498;7.540;2022-11-20T04:31:05;18.93;;;13.03;;
16189;SDS011;41754;51.498;7.540;2022-11-20T04:33:34;18.00;;;13.20;;
16189;SDS011;41754;51.498;7.540;2022-11-20T04:36:05;15.57;;;12.30;;
16189;SDS011;41754;51.498;7.540;2022-11-20T04:38:34;18.40;;;13.33;;
16189;SDS011;41754;51.498;7.540;2022-11-20T04:41:04;16.63;;;12.53;;
16189;SDS011;41754;51.498;7.540;2022-11-20T04:43:33;16.63;;;12.60;;
16189;SDS011;41754;51.498;7.540;2022-11-20T04:46:01;18.33;;;12.90;;
16189;SDS011;41754;51.498;7.540;2022-11-20T04:48:29;17.57;;;12.17;;
16189;SDS011;41754;51.498;7.540;2022-11-20T04:50:57;17.43;;;12.80;;
16189;SDS011;41754;51.498;7.540;2022-11-20T04:53:26;17.27;;;12.13;;
16189;SDS011;41754;51.498;7.540;2022-11-20T04:55:58;17.03;;;12.20;;
16189;SDS011;41754;51.498;7.540;2022-11-20T04:58:27;16.23;;;12.30;;
16189;SDS011;41754;51.498;7.540;2022-11-20T05:01:00;15.03;;;12.00;;
16189;SDS011;41754;51.498;7.540;2022-11-20T05:03:28;16.00;;;11.90;;
16189;SDS011;41754;51.498;7.540;2022-11-20T05:05:56;22.07;;;15.23;;
16189;SDS011;41754;51.498;7.540;2022-11-20T05:08:24;15.53;;;12.40;;
16189;SDS011;41754;51.498;7.540;2022-11-20T05:10:53;17.40;;;12.73;;
16189;SDS011;41754;51.498;7.540;2022-11-20T05:13:21;18.37;;;13.10;;
16189;SDS011;41754;51.498;7.540;2022-11-20T05:15:49;19.50;;;11.93;;
16189;SDS011;41754;51.498;7.540;2022-11-20T05:18:17;16.33;;;11.77;;
16189;SDS011;41754;51.498;7.540;2022-11-20T05:20:44;13.93;;;10.73;;
16189;SDS011;41754;51.498;7.540;2022-11-20T05:23:12;14.27;;;11.23;;
16189;SDS011;41754;51.498;7.540;2022-11-20T05:25:40;15.37;;;11.13;;
16189;SDS011;41754;51.498;7.540;2022-11-20T05:28:09;15.33;;;10.73;;
16189;SDS011;41754;51.498;7.540;2022-11-20T05:30:37;14.17;;;10.50;;
16189;SDS011;41754;51.498;7.540;2022-11-20T05:33:05;17.20;;;11.20;;
16189;SDS011;41754;51.498;7.540;2022-11-20T05:35:33;14.83;;;11.13;;
16189;SDS011;41754;51.498;7.540;2022-11-20T05:38:01;15.33;;;11.23;;
16189;SDS011;41754;51.498;7.540;2022-11-20T05:40:29;19.23;;;12.07;;
16189;SDS011;41754;51.498;7.540;2022-11-20T05:42:56;13.77;;;10.20;;
16189;SDS011;41754;51.498;7.540;2022-11-20T05:45:26;15.10;;;12.10;;
16189;SDS011;41754;51.498;7.540;2022-11-20T05:47:57;15.53;;;11.47;;
16189;SDS011;41754;51.498;7.540;2022-11-20T05:50:25;16.20;;;11.10;;
16189;SDS011;41754;51.498;7.540;2022-11-20T05:52:53;17.53;;;11.67;;
16189;SDS011;41754;51.498;7.540;2022-11-20T05:55:21;16.47;;;11.90;;
16189;SDS011;41754;51.498;7.540;2022-11-20T05:57:49;14.73;;;10.77;;
16189;SDS011;41754;51.498;7.540;2022-11-20T06:00:17;15.50;;;11.67;;
16189;SDS011;41754;51.498;7.540;2022-11-20T06:02:46;15.63;;;11.13;;
16189;SDS011;41754;51.498;7.540;2022-11-20T06:05:14;14.90;;;10.97;;
16189;SDS011;41754;51.498;7.540;2022-11-20T06:07:42;14.83;;;11.23;;
16189;SDS011;41754;51.498;7.540;2022-11-20T06:10:10;15.60;;;10.90;;
16189;SDS011;41754;51.498;7.540;2022-11-20T06:12:38;15.47;;;11.37;;
16189;SDS011;41754;51.498;7.540;2022-11-20T06:15:07;15.10;;;11.07;;
16189;SDS011;41754;51.498;7.540;2022-11-20T06:17:35;15.50;;;11.10;;
16189;SDS011;41754;51.498;7.540;2022-11-20T06:20:05;14.20;;;11.23;;
16189;SDS011;41754;51.498;7.540;2022-11-20T06:22:34;14.60;;;10.93;;
16189;SDS011;41754;51.498;7.540;2022-11-20T06:25:02;15.80;;;10.97;;
16189;SDS011;41754;51.498;7.540;2022-11-20T06:27:30;16.77;;;11.43;;
16189;SDS011;41754;51.498;7.540;2022-11-20T06:29:58;16.20;;;11.30;;
16189;SDS011;41754;51.498;7.540;2022-11-20T06:32:25;16.10;;;12.27;;
16189;SDS011;41754;51.498;7.540;2022-11-20T06:34:53;18.13;;;12.27;;
16189;SDS011;41754;51.498;7.540;2022-11-20T06:37:23;14.67;;;10.90;;
16189;SDS011;41754;51.498;7.540;2022-11-20T06:39:50;17.20;;;11.97;;
16189;SDS011;41754;51.498;7.540;2022-11-20T06:42:18;16.03;;;11.30;;
16189;SDS011;41754;51.498;7.540;2022-11-20T06:44:46;17.77;;;12.27;;
16189;SDS011;41754;51.498;7.540;2022-11-20T06:47:14;16.80;;;12.60;;
16189;SDS011;41754;51.498;7.540;2022-11-20T06:49:42;16.50;;;11.27;;
16189;SDS011;41754;51.498;7.540;2022-11-20T06:52:10;16.53;;;11.60;;
16189;SDS011;41754;51.498;7.540;2022-11-20T06:54:39;15.87;;;11.53;;
16189;SDS011;41754;51.498;7.540;2022-11-20T06:57:07;18.03;;;12.23;;
16189;SDS011;41754;51.498;7.540;2022-11-20T06:59:35;17.00;;;11.60;;
16189;SDS011;41754;51.498;7.540;2022-11-20T07:02:03;15.40;;;10.97;;
16189;SDS011;41754;51.498;7.540;2022-11-20T07:04:31;17.00;;;11.50;;
16189;SDS011;41754;51.498;7.540;2022-11-20T07:06:59;16.87;;;11.93;;
16189;SDS011;41754;51.498;7.540;2022-11-20T07:09:27;18.03;;;11.90;;
16189;SDS011;41754;51.498;7.540;2022-11-20T07:11:56;16.57;;;11.40;;
16189;SDS011;41754;51.498;7.540;2022-11-20T07:14:24;18.70;;;12.03;;
16189;SDS011;41754;51.498;7.540;2022-11-20T07:16:52;15.73;;;11.37;;
16189;SDS011;41754;51.498;7.540;2022-11-20T07:19:20;16.60;;;11.70;;
16189;SDS011;41754;51.498;7.540;2022-11-20T07:21:48;17.20;;;11.97;;
16189;SDS011;41754;51.498;7.540;2022-11-20T07:24:16;19.73;;;12.70;;
16189;SDS011;41754;51.498;7.540;2022-11-20T07:26:45;15.97;;;11.83;;
16189;SDS011;41754;51.498;7.540;2022-11-20T07:29:15;19.53;;;13.27;;
16189;SDS011;41754;51.498;7.540;2022-11-20T07:31:43;18.83;;;12.50;;
16189;SDS011;41754;51.498;7.540;2022-11-20T07:34:10;18.57;;;12.37;;
16189;SDS011;41754;51.498;7.540;2022-11-20T07:36:39;17.57;;;12.63;;
16189;SDS011;41754;51.498;7.540;2022-11-20T07:39:07;19.00;;;11.23;;
16189;SDS011;41754;51.498;7.540;2022-11-20T07:41:34;17.20;;;11.97;;
16189;SDS011;41754;51.498;7.540;2022-11-20T07:44:02;15.37;;;11.10;;
16189;SDS011;41754;51.498;7.540;2022-11-20T07:46:32;16.67;;;11.30;;
16189;SDS011;41754;51.498;7.540;2022-11-20T07:49:00;18.27;;;12.80;;
16189;SDS011;41754;51.498;7.540;2022-11-20T07:51:28;16.93;;;11.60;;
16189;SDS011;41754;51.498;7.540;2022-11-20T07:53:55;17.77;;;13.13;;
16189;SDS011;41754;51.498;7.540;2022-11-20T07:56:23;22.73;;;15.43;;
16189;SDS011;41754;51.498;7.540;2022-11-20T07:58:52;26.17;;;18.57;;
16189;SDS011;41754;51.498;7.540;2022-11-20T08:01:20;28.27;;;19.20;;
16189;SDS011;41754;51.498;7.540;2022-11-20T08:03:49;24.23;;;17.80;;
16189;SDS011;41754;51.498;7.540;2022-11-20T08:06:17;24.17;;;17.60;;
16189;SDS011;41754;51.498;7.540;2022-11-20T08:08:46;26.40;;;17.23;;
16189;SDS011;41754;51.498;7.540;2022-11-20T08:11:14;22.50;;;17.17;;
16189;SDS011;41754;51.498;7.540;2022-11-20T08:14:11;22.33;;;16.87;;
16189;SDS011;41754;51.498;7.540;2022-11-20T08:16:39;22.40;;;16.60;;
16189;SDS011;41754;51.498;7.540;2022-11-20T08:19:08;24.77;;;19.03;;
16189;SDS011;41754;51.498;7.540;2022-11-20T08:21:36;23.53;;;17.27;;
16189;SDS011;41754;51.498;7.540;2022-11-20T08:24:05;23.17;;;16.53;;
16189;SDS011;41754;51.498;7.540;2022-11-20T08:26:33;22.13;;;16.07;;
16189;SDS011;41754;51.498;7.540;2022-11-20T08:29:02;17.97;;;12.83;;
16189;SDS011;41754;51.498;7.540;2022-11-20T08:31:30;19.83;;;14.13;;
16189;SDS011;41754;51.498;7.540;2022-11-20T08:33:59;17.90;;;13.03;;
16189;SDS011;41754;51.498;7.540;2022-11-20T08:36:34;22.57;;;16.60;;
16189;SDS011;41754;51.498;7.540;2022-11-20T08:39:02;18.10;;;13.33;;
16189;SDS011;41754;51.498;7.540;2022-11-20T08:41:30;14.47;;;11.17;;
16189;SDS011;41754;51.498;7.540;2022-11-20T08:44:00;18.97;;;15.00;;
16189;SDS011;41754;51.498;7.540;2022-11-20T08:46:31;22.47;;;15.40;;
16189;SDS011;41754;51.498;7.540;2022-11-20T08:49:01;20.53;;;16.07;;
16189;SDS011;41754;51.498;7.540;2022-11-20T08:51:30;18.90;;;15.43;;
16189;SDS011;41754;51.498;7.540;2022-11-20T08:53:59;21.37;;;16.27;;
16189;SDS011;41754;51.498;7.540;2022-11-20T08:56:27;20.10;;;15.00;;
16189;SDS011;41754;51.498;7.540;2022-11-20T08:58:55;23.67;;;17.13;;
16189;SDS011;41754;51.498;7.540;2022-11-20T09:01:43;23.97;;;17.20;;
16189;SDS011;41754;51.498;7.540;2022-11-20T09:04:11;20.77;;;15.10;;
16189;SDS011;41754;51.498;7.540;2022-11-20T09:06:40;18.87;;;13.30;;
16189;SDS011;41754;51.498;7.540;2022-11-20T09:09:10;17.40;;;13.60;;
16189;SDS011;41754;51.498;7.540;2022-11-20T09:11:38;17.40;;;13.07;;
16189;SDS011;41754;51.498;7.540;2022-11-20T09:14:06;17.03;;;13.13;;
16189;SDS011;41754;51.498;7.540;2022-11-20T09:16:34;16.47;;;12.17;;
16189;SDS011;41754;51.498;7.540;2022-11-20T09:19:01;14.80;;;11.17;;
16189;SDS011;41754;51.498;7.540;2022-11-20T09:21:49;14.30;;;9.87;;
16189;SDS011;41754;51.498;7.540;2022-11-20T09:24:26;14.33;;;10.30;;
16189;SDS011;41754;51.498;7.540;2022-11-20T09:26:54;13.77;;;10.53;;
16189;SDS011;41754;51.498;7.540;2022-11-20T09:29:21;11.37;;;9.27;;
16189;SDS011;41754;51.498;7.540;2022-11-20T09:31:49;12.93;;;10.20;;
16189;SDS011;41754;51.498;7.540;2022-11-20T09:34:17;13.53;;;10.67;;
16189;SDS011;41754;51.498;7.540;2022-11-20T09:36:45;13.97;;;9.77;;
16189;SDS011;41754;51.498;7.540;2022-11-20T09:39:13;15.73;;;10.47;;
16189;SDS011;41754;51.498;7.540;2022-11-20T09:41:47;13.13;;;9.60;;
16189;SDS011;41754;51.498;7.540;2022-11-20T09:44:27;13.63;;;10.03;;
16189;SDS011;41754;51.498;7.540;2022-11-20T09:47:07;14.37;;;9.87;;
16189;SDS011;41754;51.498;7.540;2022-11-20T09:49:49;16.53;;;10.77;;
16189;SDS011;41754;51.498;7.540;2022-11-20T09:52:26;13.47;;;10.13;;
16189;SDS011;41754;51.498;7.540;2022-11-20T09:55:00;14.77;;;9.73;;
16189;SDS011;41754;51.498;7.540;2022-11-20T09:57:32;13.33;;;9.83;;
16189;SDS011;41754;51.498;7.540;2022-11-20T10:00:04;12.30;;;8.93;;
16189;SDS011;41754;51.498;7.540;2022-11-20T10:02:37;11.97;;;9.03;;
16189;SDS011;41754;51.498;7.540;2022-11-20T10:05:10;11.03;;;8.63;;
16189;SDS011;41754;51.498;7.540;2022-11-20T10:07:41;11.37;;;9.03;;
16189;SDS011;41754;51.498;7.540;2022-11-20T10:10:15;14.23;;;9.13;;
16189;SDS011;41754;51.498;7.540;2022-11-20T10:12:58;14.77;;;9.90;;
16189;SDS011;41754;51.498;7.540;2022-11-20T10:15:33;15.00;;;10.57;;
16189;SDS011;41754;51.498;7.540;2022-11-20T10:18:09;16.27;;;11.47;;
16189;SDS011;41754;51.498;7.540;2022-11-20T10:20:46;15.00;;;9.70;;
16189;SDS011;41754;51.498;7.540;2022-11-20T10:23:27;12.90;;;10.23;;
16189;SDS011;41754;51.498;7.540;2022-11-20T10:26:03;12.67;;;9.03;;
16189;SDS011;41754;51.498;7.540;2022-11-20T10:28:38;14.77;;;9.00;;
16189;SDS011;41754;51.498;7.540;2022-11-20T10:31:26;15.77;;;8.87;;
16189;SDS011;41754;51.498;7.540;2022-11-20T10:33:57;16.20;;;9.57;;
16189;SDS011;41754;51.498;7.540;2022-11-20T10:36:38;10.33;;;8.27;;
16189;SDS011;41754;51.498;7.540;2022-11-20T10:39:11;11.20;;;8.13;;
16189;SDS011;41754;51.498;7.540;2022-11-20T10:41:44;11.97;;;9.10;;
16189;SDS011;41754;51.498;7.540;2022-11-20T10:44:17;13.63;;;8.97;;
16189;SDS011;41754;51.498;7.540;2022-11-20T10:47:22;15.37;;;8.47;;
16189;SDS011;41754;51.498;7.540;2022-11-20T10:49:51;12.23;;;8.57;;
16189;SDS011;41754;51.498;7.540;2022-11-20T10:52:21;10.47;;;8.30;;
16189;SDS011;41754;51.498;7.540;2022-11-20T10:54:56;13.37;;;9.43;;
16189;SDS011;41754;51.498;7.540;2022-11-20T10:57:31;12.87;;;8.47;;
16189;SDS011;41754;51.498;7.540;2022-11-20T11:00:15;11.13;;;8.23;;
16189;SDS011;41754;51.498;7.540;2022-11-20T11:02:45;16.93;;;9.53;;
16189;SDS011;41754;51.498;7.540;2022-11-20T11:05:17;10.97;;;7.10;;
16189;SDS011;41754;51.498;7.540;2022-11-20T11:07:51;6.60;;;5.13;;
16189;SDS011;41754;51.498;7.540;2022-11-20T11:10:21;8.13;;;5.77;;
16189;SDS011;41754;51.498;7.540;2022-11-20T11:12:51;6.57;;;5.53;;
16189;SDS011;41754;51.498;7.540;2022-11-20T11:15:28;6.90;;;5.37;;
16189;SDS011;41754;51.498;7.540;2022-11-20T11:17:56;9.13;;;6.00;;
16189;SDS011;41754;51.498;7.540;2022-11-20T11:20:25;9.17;;;6.10;;
16189;SDS011;41754;51.498;7.540;2022-11-20T11:22:54;8.47;;;5.73;;
16189;SDS011;41754;51.498;7.540;2022-11-20T11:25:24;7.57;;;5.73;;
16189;SDS011;41754;51.498;7.540;2022-11-20T11:27:54;8.13;;;5.83;;
16189;SDS011;41754;51.498;7.540;2022-11-20T11:30:24;10.07;;;6.00;;
16189;SDS011;41754;51.498;7.540;2022-11-20T11:33:03;9.20;;;5.97;;
16189;SDS011;41754;51.498;7.540;2022-11-20T11:35:32;9.00;;;6.33;;
16189;SDS011;41754;51.498;7.540;2022-11-20T11:38:04;9.83;;;6.40;;
16189;SDS011;41754;51.498;7.540;2022-11-20T11:40:35;8.17;;;6.07;;
16189;SDS011;41754;51.498;7.540;2022-11-20T11:43:04;9.90;;;6.87;;
16189;SDS011;41754;51.498;7.540;2022-11-20T11:45:57;8.33;;;6.70;;
16189;SDS011;41754;51.498;7.540;2022-11-20T11:48:25;9.50;;;6.93;;
16189;SDS011;41754;51.498;7.540;2022-11-20T11:50:54;10.00;;;6.87;;
16189;SDS011;41754;51.498;7.540;2022-11-20T11:53:21;8.37;;;6.97;;
16189;SDS011;41754;51.498;7.540;2022-11-20T11:55:52;10.47;;;7.67;;
16189;SDS011;41754;51.498;7.540;2022-11-20T11:58:31;9.27;;;7.20;;
16189;SDS011;41754;51.498;7.540;2022-11-20T12:01:03;9.03;;;7.07;;
16189;SDS011;41754;51.498;7.540;2022-11-20T12:03:37;9.57;;;7.47;;
16189;SDS011;41754;51.498;7.540;2022-11-20T12:06:09;10.33;;;7.67;;
16189;SDS011;41754;51.498;7.540;2022-11-20T12:08:41;10.43;;;7.80;;
16189;SDS011;41754;51.498;7.540;2022-11-20T12:11:12;8.70;;;6.33;;
16189;SDS011;41754;51.498;7.540;2022-11-20T12:13:42;9.07;;;7.17;;
16189;SDS011;41754;51.498;7.540;2022-11-20T12:16:13;9.77;;;7.30;;
16189;SDS011;41754;51.498;7.540;2022-11-20T12:18:44;8.20;;;6.30;;
16189;SDS011;41754;51.498;7.540;2022-11-20T12:21:21;6.97;;;6.10;;
16189;SDS011;41754;51.498;7.540;2022-11-20T12:23:59;8.27;;;5.83;;
16189;SDS011;41754;51.498;7.540;2022-11-20T12:26:38;7.63;;;6.10;;
16189;SDS011;41754;51.498;7.540;2022-11-20T12:29:15;8.20;;;6.67;;
16189;SDS011;41754;51.498;7.540;2022-11-20T12:32:03;7.60;;;6.07;;
16189;SDS011;41754;51.498;7.540;2022-11-20T12:34:50;7.60;;;6.13;;
16189;SDS011;41754;51.498;7.540;2022-11-20T12:37:24;9.37;;;6.93;;
16189;SDS011;41754;51.498;7.540;2022-11-20T12:39:58;7.53;;;5.73;;
16189;SDS011;41754;51.498;7.540;2022-11-20T12:42:33;9.33;;;6.00;;
16189;SDS011;41754;51.498;7.540;2022-11-20T12:45:59;9.07;;;6.33;;
16189;SDS011;41754;51.498;7.540;2022-11-20T12:48:57;8.07;;;5.87;;
16189;SDS011;41754;51.498;7.540;2022-11-20T12:51:57;7.67;;;5.87;;
16189;SDS011;41754;51.498;7.540;2022-11-20T12:57:27;10.07;;;7.17;;
16189;SDS011;41754;51.498;7.540;2022-11-20T13:00:00;11.43;;;8.17;;
16189;SDS011;41754;51.498;7.540;2022-11-20T13:02:37;9.17;;;6.67;;
16189;SDS011;41754;51.498;7.540;2022-11-20T13:05:24;10.07;;;7.23;;
16189;SDS011;41754;51.498;7.540;2022-11-20T13:07:57;10.20;;;6.80;;
16189;SDS011;41754;51.498;7.540;2022-11-20T13:10:28;10.83;;;7.47;;
16189;SDS011;41754;51.498;7.540;2022-11-20T13:13:00;10.53;;;7.73;;
16189;SDS011;41754;51.498;7.540;2022-11-20T13:15:44;9.67;;;7.43;;
16189;SDS011;41754;51.498;7.540;2022-11-20T13:18:18;9.70;;;7.53;;
16189;SDS011;41754;51.498;7.540;2022-11-20T13:20:46;12.47;;;8.00;;
16189;SDS011;41754;51.498;7.540;2022-11-20T13:23:24;11.73;;;8.43;;
16189;SDS011;41754;51.498;7.540;2022-11-20T13:26:03;10.30;;;8.37;;
16189;SDS011;41754;51.498;7.540;2022-11-20T13:28:32;12.63;;;8.67;;
16189;SDS011;41754;51.498;7.540;2022-11-20T13:31:00;12.10;;;9.03;;
16189;SDS011;41754;51.498;7.540;2022-11-20T13:33:29;12.00;;;8.20;;
16189;SDS011;41754;51.498;7.540;2022-11-20T13:35:59;11.17;;;8.10;;
16189;SDS011;41754;51.498;7.540;2022-11-20T13:38:39;12.47;;;9.00;;
16189;SDS011;41754;51.498;7.540;2022-11-20T13:41:09;12.43;;;9.63;;
16189;SDS011;41754;51.498;7.540;2022-11-20T13:43:51;13.20;;;9.67;;
16189;SDS011;41754;51.498;7.540;2022-11-20T13:46:19;13.50;;;10.07;;
16189;SDS011;41754;51.498;7.540;2022-11-20T13:48:51;13.53;;;9.67;;
16189;SDS011;41754;51.498;7.540;2022-11-20T13:51:25;13.80;;;9.33;;
16189;SDS011;41754;51.498;7.540;2022-11-20T13:54:04;13.03;;;9.77;;
16189;SDS011;41754;51.498;7.540;2022-11-20T13:56:43;13.93;;;9.37;;
16189;SDS011;41754;51.498;7.540;2022-11-20T13:59:21;13.27;;;9.40;;
16189;SDS011;41754;51.498;7.540;2022-11-20T14:01:57;14.20;;;9.77;;
16189;SDS011;41754;51.498;7.540;2022-11-20T14:04:26;12.63;;;9.27;;
16189;SDS011;41754;51.498;7.540;2022-11-20T14:06:54;13.33;;;10.10;;
16189;SDS011;41754;51.498;7.540;2022-11-20T14:09:27;12.40;;;10.03;;
16189;SDS011;41754;51.498;7.540;2022-11-20T14:11:56;14.67;;;10.30;;
16189;SDS011;41754;51.498;7.540;2022-11-20T14:14:24;11.93;;;9.50;;
16189;SDS011;41754;51.498;7.540;2022-11-20T14:17:04;12.43;;;9.87;;
16189;SDS011;41754;51.498;7.540;2022-11-20T14:19:32;12.67;;;9.63;;
16189;SDS011;41754;51.498;7.540;2022-11-20T14:22:09;14.53;;;10.07;;
16189;SDS011;41754;51.498;7.540;2022-11-20T14:24:45;14.73;;;10.43;;
16189;SDS011;41754;51.498;7.540;2022-11-20T14:27:14;14.37;;;10.40;;
16189;SDS011;41754;51.498;7.540;2022-11-20T14:29:43;13.33;;;9.97;;
16189;SDS011;41754;51.498;7.540;2022-11-20T14:32:14;14.23;;;10.00;;
16189;SDS011;41754;51.498;7.540;2022-11-20T14:34:43;14.83;;;9.97;;
16189;SDS011;41754;51.498;7.540;2022-11-20T14:37:12;12.50;;;9.27;;
16189;SDS011;41754;51.498;7.540;2022-11-20T14:39:49;10.43;;;8.97;;
16189;SDS011;41754;51.498;7.540;2022-11-20T14:42:19;13.47;;;9.27;;
16189;SDS011;41754;51.498;7.540;2022-11-20T14:44:48;15.00;;;10.47;;
16189;SDS011;41754;51.498;7.540;2022-11-20T14:47:18;14.67;;;12.13;;
16189;SDS011;41754;51.498;7.540;2022-11-20T14:49:48;19.83;;;12.43;;
16189;SDS011;41754;51.498;7.540;2022-11-20T14:52:17;13.97;;;10.37;;